createdAt,value
2022-10-22T00:00:02.993Z,9.4
2022-10-22T00:15:02.439Z,9.3
2022-10-22T00:30:02.878Z,9.3
2022-10-22T00:45:02.386Z,9.3
2022-10-22T01:00:02.765Z,9.4
2022-10-22T01:15:03.390Z,9.4
2022-10-22T01:30:02.637Z,9.4
2022-10-22T01:45:03.043Z,9.4
2022-10-22T02:00:02.487Z,9.2
2022-10-22T02:15:02.953Z,9.1
2022-10-22T02:30:02.460Z,9.0
2022-10-22T02:45:02.834Z,8.8
2022-10-22T03:00:03.425Z,8.7
2022-10-22T03:15:02.716Z,8.7
2022-10-22T03:30:03.350Z,8.6
2022-10-22T03:45:02.597Z,8.4
2022-10-22T04:00:03.015Z,8.2
2022-10-22T04:15:02.481Z,8.0
2022-10-22T04:30:02.919Z,7.9
2022-10-22T04:45:02.438Z,7.7
2022-10-22T05:00:02.786Z,7.6
2022-10-22T05:15:03.441Z,7.5
2022-10-22T05:30:02.652Z,7.4
2022-10-22T05:45:03.096Z,7.3
2022-10-22T06:00:02.524Z,7.3
2022-10-22T06:15:02.942Z,7.2
2022-10-22T06:30:02.456Z,7.2
2022-10-22T06:45:02.906Z,7.4
2022-10-22T07:00:02.462Z,7.7
2022-10-22T07:15:02.687Z,8.2
2022-10-22T07:30:03.168Z,8.6
2022-10-22T07:45:02.612Z,9.3
2022-10-22T08:00:03.042Z,10.4
2022-10-22T08:15:02.472Z,12.3
2022-10-22T08:30:02.904Z,13.8
2022-10-22T08:45:02.451Z,14.5
2022-10-22T09:00:02.789Z,16.1
2022-10-22T09:15:03.450Z,16.6
2022-10-22T09:30:02.673Z,16.8
2022-10-22T09:45:03.107Z,17.7
2022-10-22T10:00:02.532Z,17.7
2022-10-22T10:15:02.963Z,17.9
2022-10-22T10:30:02.508Z,17.5
2022-10-22T10:45:02.864Z,17.0
2022-10-22T11:00:02.474Z,16.9
2022-10-22T11:15:02.746Z,16.7
2022-10-22T11:30:03.210Z,16.7
2022-10-22T11:45:02.616Z,16.8
2022-10-22T12:00:03.051Z,17.2
2022-10-22T12:15:02.522Z,17.3
2022-10-22T12:30:02.933Z,17.2
2022-10-22T12:45:02.545Z,17.5
2022-10-22T13:00:02.804Z,17.0
2022-10-22T13:15:03.252Z,16.7
2022-10-22T13:30:02.661Z,16.4
2022-10-22T13:45:03.135Z,16.0
2022-10-22T14:00:02.631Z,16.1
2022-10-22T14:15:03.009Z,16.2
2022-10-22T14:30:02.601Z,16.2
2022-10-22T14:45:02.900Z,16.1
2022-10-22T15:00:02.558Z,15.9
2022-10-22T15:15:02.775Z,16.0
2022-10-22T15:45:02.620Z,15.6
2022-10-22T16:00:03.070Z,15.4
2022-10-22T16:15:02.572Z,14.8
2022-10-22T16:30:02.979Z,14.2
2022-10-22T16:45:02.651Z,13.6
2022-10-22T17:00:02.852Z,13.1
2022-10-22T17:15:02.304Z,12.6
2022-10-22T17:30:02.750Z,12.2
2022-10-22T17:45:03.188Z,11.7
2022-10-22T18:00:02.623Z,11.4
2022-10-22T18:15:03.070Z,11.0
2022-10-22T18:30:02.601Z,10.6
2022-10-22T18:45:02.950Z,10.3
2022-10-22T19:00:02.539Z,10.0
2022-10-22T19:15:02.792Z,9.8
2022-10-22T19:30:02.258Z,9.4
2022-10-22T19:45:02.682Z,9.2
2022-10-22T20:00:03.088Z,8.9
2022-10-22T20:15:02.618Z,8.8
2022-10-22T20:30:03.069Z,8.7
2022-10-22T20:45:02.633Z,8.6
2022-10-22T21:00:02.864Z,8.5
2022-10-22T21:15:02.290Z,8.4
2022-10-22T21:30:02.741Z,8.3
2022-10-22T21:45:03.313Z,8.1
2022-10-22T22:00:02.666Z,8.1
2022-10-22T22:15:03.039Z,8.1
2022-10-22T22:30:02.649Z,8.0
2022-10-22T22:45:02.941Z,8.2
2022-10-22T23:00:02.430Z,8.4
2022-10-22T23:15:02.786Z,8.7
2022-10-22T23:30:02.244Z,8.7
2022-10-22T23:45:02.669Z,8.8
